Terminal Aerodrome Forecast
Issued by NWS Pocatello, ID

Home | Current Version | Previous Version | Text Only | Print | Product List | Glossary On
Versions: 1 2 3 4 5 6 7 8 9 10 11 12 13 14 15 16 17 18 19 20 21
000
FTUS45 KPIH 270600 AAA
TAFIDA
TAF AMD
KIDA 270635Z 2707/2806 21008KT P6SM OVC007
     FM271000 21007KT 3SM BR BKN004 OVC030
     FM271700 22009KT P6SM VCSH SCT012 OVC050
     FM280100 20012KT 5SM -SN BKN015 OVC030=

USA.gov is the U.S. government's official web portal to all federal, state and local government web resources and services.